Portland, ND

2:15 PM CST on December 21, 2014 (GMT -0600)
Grand Forks International | Change Station
CLOSE
Current Station
Airport
Location: Grand Forks,
Elevation: 843 ft
Nearby Weather Stations
Active Advisory: Special Statement

Elev 843 ft 47.95 °N, 97.18 °W | Updated 22 minutes ago

Overcast
Overcast
31 °F
Feels Like 22 °F
N
12
Wind Variable Wind from South

Today
High -- | Low -- °F
--% Chance of Precip.
Yesterday
High -- | Low -- °F
Precip. -- in
8:14 AM 4:40 PM
Waning Crescent, 0% visible
Pressure 29.65 in
Visibility 4.0 miles
Clouds Overcast 600 ft
Windchill 22 °F
Dew Point 30 °F
Humidity 96%
Rainfall 0.00 in
Snow Depth Not available.
UV 0 out of 12
Pollen .10 out of 12
Air Quality Not available.
Flu Activity Not available.
METAR KGFK 211953Z 17010KT 4SM BR OVC006 M01/M01 A2961 RMK AO2 SLP038 T10061011 $

More Conditions Fewer Conditions

Pressure 29.65 in
Visibility 4.0 miles
Clouds Overcast 600 ft
Windchill 22 °F
Dew Point 30 °F
Humidity 96%
Rainfall 0.00 in
Snow Depth Not available.
UV 0 out of 12
Pollen .10 out of 12
Air Quality Not available.
Flu Activity Not available.
METAR KGFK 211953Z 17010KT 4SM BR OVC006 M01/M01 A2961 RMK AO2 SLP038 T10061011 $

More Conditions Fewer Conditions

10-Day Weather Forecast

Almanac

Astronomy

Dec. 21, 2014 Rise Set
Actual Time
Civil Twilight
Nautical Twilight
Astronomical Twilight
Moon
Length of Visible Light
Length of Day
Tomorrow will be .
, % of the Moon is Illuminated

Today's Extremes

State Highs State Lows

Community

WunderPhotos

Upload Photos

1,779,469 photos uploaded!

WunderBlogs® & News

Nearby

Air Quality

  Air Quality AQ Index Pollutant
Not available.

Snow Depth

Station Depth Elevation

Earthquake Activity

City Distance Mag. Time & Date
Minimum magnitude displayed is 2.5.

Coastal Water Temperatures

Place Temperature

Nearby Weather Stations